Comodoro Rivadavia, Argentina
Current Conditions -  °F | °C
As of 6:00 AM on Saturday 25 Oct 2014 (Local Time) from SAVC Reporting Station
Clear Clear  
Wind Chill: 16°   Ceiling: Unl
Heat Index: 16°   Visibility: 6mi
Dew Point:   Wind: 10mph
Humidity: 39%   Direction: 270°W
Pressure: 29.77"   Gusts: NA
Location:  45.86°S, 67.49°W
Report Text: SAVC 250900Z 27009KT CAVOK 16/02 Q1008
Loading
Personal Weather Stations






























Interactive Weather Map
Tropical Storm Tracking
New forecast layout! Learn more

10-Day Weather Forecast

Advertisements
Track Severe Weather on mobile